Pagrindinis puslapis
METAR-TAF:

METAR-TAF

Oro uostai :

Tarvizijus, Italija

platuma: 46-30N, ilguma: 013-35E, Aukštis: 777 m

Dabartinis oras

Ataskaita buvo paskelbta 6 valandos ir 2 minutes, ne 17:55 UTC
Vėjas 1 kt iš Šiaurės
Temperatūra 11°C
Drėgmė 43%
Slėgis 1029 hPa
Matomumas 10 km arba daugiau
nėra debesų žemiau 1500 m ir nėra kamuolinių lietaus debesų

METAR: LIVO 071755Z 35001KT CAVOK 11/M01 Q1029 RMK SKC VIS MIN 9999

Laikas: 01:57 (23:57 UTC)


TAF: trūkstamas

Orai ataskaitas ir orų prognozės (METAR, TAF).

turimą stotys yra geltonos ir raudonos taškus žemėlapyje.

Perkelti pele per norėdami pamatyti stoties vardą.

Tada spustelėkite, norėdami matyti oro stebėjimo ir prognozės.

Norėdami pakeisti žemėlapį: spustelėkite ant žalios mygtukų su juodo kryžiaus žemyn,; žalią mygtuką su brūkšneliu, jei norite nutolinti; arba žalių rodyklių gretimoms žemėlapius.


METAR-TAF: